Impacts METAR Board
IDs:

KAUS - Austin/Bergstrom Int, TX, US

Updated at: 0400 UTC 21 Jun 2021
Potential Impact None Slight Moderate High
Time 20/16Z 20/17Z 20/18Z 20/19Z 20/20Z 20/21Z 20/22Z 20/23Z 21/00Z 21/01Z 21/02Z 21/03Z 21/04Z
Temp86 87 90 90 90 91 90 90 86 86 83 81 80
Dewpt72 72 73 72 73 73 72 73 73 73 74 75 75
Altim29.84 29.83 29.81 29.78 29.77 29.76 29.75 29.75 29.75 29.75 29.76 29.78 29.80
VIS10 10 10 10 10 10 10 10 10 10 10 10 10
CIG-- 250 250 250 250 250 250 200 200 -- -- -- --
CoverSCTBKNBKNBKNBKNBKNBKNBKNBKNSCTSCTFEWFEW
FltCatVFRVFRVFRVFRVFRVFRVFRVFRVFRVFRVFRVFRVFR
WX--------------------------
WDir190170170180170150160150160160160150160
WSpd14 11 13 10 11 14 13 11 12 13 8 7 11
WGst20 19 20 19 20 21 20 18 -- -- -- -- --
R17/35
XWnd -3 2 2 -0 2 7 4 5 4 4 3 3 4
XGst -4 3 3 -0 3 10 7 9 -- -- -- -- --
HWnd 14 11 13 10 11 12 12 10 11 12 8 6 10
HGst 20 19 20 19 20 18 19 16 -- -- -- -- --
Raw hourly METARs
KAUS 201553Z 19014G20KT 10SM SCT026 SCT250 30/22 A2984 RMK AO2 SLP094 T03000222 $
KAUS 201653Z 17011G19KT 10SM SCT035 SCT200 BKN250 31/22 A2983 RMK AO2 SLP088 T03060222 $
KAUS 201753Z 17013G20KT 10SM SCT037 BKN250 32/23 A2981 RMK AO2 SLP081 60000 T03220228 10322 20222 58017 $
KAUS 201853Z 18010G19KT 10SM FEW042 FEW050 BKN250 32/22 A2978 RMK AO2 SLP073 T03220222 $
KAUS 201953Z 17011G20KT 10SM FEW041 FEW049 BKN250 32/23 A2977 RMK AO2 SLP069 T03220228 $
KAUS 202053Z 15014G21KT 10SM FEW039 SCT050 BKN250 33/23 A2976 RMK AO2 SLP067 T03280228 56016 $
KAUS 202153Z 16013G20KT 10SM FEW042 SCT200 BKN250 32/22 A2975 RMK AO2 SLP063 T03220222 $
KAUS 202253Z 15011G18KT 10SM SCT044 SCT060 BKN200 BKN250 32/23 A2975 RMK AO2 SLP062 T03220228 $
KAUS 202353Z 16012KT 10SM FEW045 SCT060 BKN200 30/23 A2975 RMK AO2 SLP062 T03000228 10333 20300 55004 $
KAUS 210053Z 16013KT 10SM FEW060 SCT200 SCT250 30/23 A2975 RMK AO2 SLP064 T03000228 $
KAUS 210153Z 16008KT 10SM FEW060 SCT200 SCT250 28/23 A2976 RMK AO2 SLP066 T02830233 $
KAUS 210253Z 15007KT 10SM FEW023 FEW060 FEW150 27/24 A2978 RMK AO2 SLP074 T02720239 53012 $
KAUS 210353Z 16011KT 10SM FEW022 27/24 A2980 RMK AO2 SLP079 T02670239 $



Page loaded:  04:12 UTC  |   09:12 PM Pacific  |   10:12 PM Mountain  |   11:12 PM Central  |   12:12 AM Eastern

 

ADVISORIES

FORECASTS

FORECASTS

OBSERVATIONS

USER TOOLS

ABOUT US